createdAt,value
2023-01-13T00:00:16.102Z,86.63
2023-01-13T00:03:03.437Z,86.87
2023-01-13T00:05:30.840Z,86.38
2023-01-13T00:07:57.764Z,86.53
2023-01-13T00:10:25.009Z,86.67
2023-01-13T00:12:53.551Z,86.55
2023-01-13T00:15:20.897Z,86.47
2023-01-13T00:17:48.853Z,86.38
2023-01-13T00:20:16.538Z,86.27
2023-01-13T00:22:43.626Z,86.39
2023-01-13T00:25:11.032Z,86.59
2023-01-13T00:27:38.207Z,86.50
2023-01-13T00:30:07.583Z,86.64
2023-01-13T00:32:34.581Z,86.62
2023-01-13T00:35:01.980Z,86.62
2023-01-13T00:37:29.125Z,86.56
2023-01-13T00:39:57.880Z,86.84
2023-01-13T00:42:43.181Z,86.86
2023-01-13T00:45:10.842Z,87.05
2023-01-13T00:47:37.964Z,87.04
2023-01-13T00:50:05.570Z,87.27
2023-01-13T00:52:33.676Z,87.20
2023-01-13T00:55:01.020Z,87.46
2023-01-13T00:57:28.061Z,87.46
2023-01-13T00:59:55.581Z,87.25
2023-01-13T01:02:22.543Z,86.92
2023-01-13T01:04:50.023Z,87.20
2023-01-13T01:07:17.030Z,87.42
2023-01-13T01:09:44.279Z,87.30
2023-01-13T01:12:11.532Z,87.41
2023-01-13T01:14:38.781Z,87.51
2023-01-13T01:17:05.677Z,87.34
2023-01-13T01:19:32.978Z,87.13
2023-01-13T01:21:59.913Z,86.88
2023-01-13T01:24:27.263Z,86.74
2023-01-13T01:26:54.161Z,86.77
2023-01-13T01:29:21.302Z,87.07
2023-01-13T01:31:48.259Z,86.77
2023-01-13T01:34:15.459Z,86.92
2023-01-13T01:36:42.380Z,87.13
2023-01-13T01:39:09.986Z,86.99
2023-01-13T01:41:37.371Z,86.87
2023-01-13T01:44:27.232Z,87.19
2023-01-13T01:46:56.480Z,88.00
2023-01-13T01:49:32.162Z,88.61
2023-01-13T01:52:13.301Z,89.14
2023-01-13T01:55:24.102Z,89.94
2023-01-13T01:57:57.266Z,90.15
2023-01-13T02:00:27.051Z,90.28
2023-01-13T02:02:54.778Z,90.20
2023-01-13T02:05:22.319Z,90.25
2023-01-13T02:07:52.339Z,90.17
2023-01-13T02:10:23.454Z,90.19
2023-01-13T02:12:53.057Z,90.17
2023-01-13T02:15:32.774Z,89.94
2023-01-13T02:18:11.799Z,89.82
2023-01-13T02:20:51.078Z,89.79
2023-01-13T02:24:03.823Z,89.72
2023-01-13T02:26:49.546Z,89.40
2023-01-13T02:30:12.231Z,89.68
2023-01-13T02:32:51.750Z,89.86
2023-01-13T02:35:27.509Z,90.02
2023-01-13T02:37:56.882Z,90.41
2023-01-13T02:40:28.687Z,90.31
2023-01-13T02:43:31.076Z,91.00
2023-01-13T02:46:04.658Z,91.14
2023-01-13T02:48:33.117Z,91.24
2023-01-13T02:51:06.746Z,90.93
2023-01-13T02:53:43.453Z,91.02
2023-01-13T02:56:13.428Z,90.75
2023-01-13T02:58:43.683Z,91.10
2023-01-13T03:01:10.827Z,91.07
2023-01-13T03:03:38.190Z,91.23
2023-01-13T03:06:30.783Z,91.32
2023-01-13T03:09:30.612Z,91.27
2023-01-13T03:12:08.466Z,91.42
2023-01-13T03:14:44.538Z,91.52
2023-01-13T03:17:11.383Z,91.47
2023-01-13T03:19:56.593Z,91.51
2023-01-13T03:22:33.572Z,91.51
2023-01-13T03:25:11.943Z,91.51
2023-01-13T03:27:45.382Z,91.26
2023-01-13T03:30:21.234Z,91.10
2023-01-13T03:32:57.084Z,90.94
2023-01-13T03:35:31.194Z,91.08
2023-01-13T03:38:22.434Z,91.41
2023-01-13T03:40:54.905Z,91.24
2023-01-13T03:43:45.592Z,91.16
2023-01-13T03:46:21.766Z,91.38
2023-01-13T03:48:53.695Z,91.90
2023-01-13T03:51:24.020Z,92.30
2023-01-13T03:53:57.374Z,92.38
2023-01-13T03:56:28.084Z,92.71
2023-01-13T03:58:57.600Z,92.68
2023-01-13T04:01:29.297Z,92.67
2023-01-13T04:04:32.942Z,93.29
2023-01-13T04:07:08.913Z,93.73
2023-01-13T04:09:52.740Z,94.03
2023-01-13T04:12:52.348Z,94.27
2023-01-13T04:15:22.272Z,94.36
2023-01-13T04:17:50.786Z,94.31
2023-01-13T04:20:17.955Z,94.12
2023-01-13T04:22:45.169Z,94.40
2023-01-13T04:25:12.039Z,94.47
2023-01-13T04:27:39.323Z,94.35
2023-01-13T04:30:07.043Z,94.25
2023-01-13T04:32:34.700Z,94.11
2023-01-13T04:35:01.663Z,93.95
2023-01-13T04:37:28.874Z,93.78
2023-01-13T04:39:55.756Z,93.92
2023-01-13T04:42:22.909Z,93.85
2023-01-13T04:44:49.793Z,94.22
2023-01-13T04:47:17.064Z,94.43
2023-01-13T04:49:43.951Z,94.74
2023-01-13T04:52:11.085Z,95.14
2023-01-13T04:54:38.042Z,95.31
2023-01-13T04:57:05.268Z,95.33
2023-01-13T04:59:33.950Z,95.52
2023-01-13T05:02:02.287Z,95.45
2023-01-13T05:04:29.185Z,95.68
2023-01-13T05:06:56.774Z,95.52
2023-01-13T05:09:23.663Z,95.53
2023-01-13T05:12:09.551Z,95.70
2023-01-13T05:14:55.030Z,95.53
2023-01-13T05:17:25.097Z,95.45
2023-01-13T05:19:52.030Z,95.45
2023-01-13T05:22:37.910Z,95.75
2023-01-13T05:25:24.480Z,95.96
2023-01-13T05:27:54.356Z,96.24
2023-01-13T05:30:23.693Z,96.47
2023-01-13T05:32:51.022Z,96.57
2023-01-13T05:35:18.375Z,96.55
2023-01-13T05:37:46.522Z,96.85
2023-01-13T05:40:34.477Z,97.04
2023-01-13T05:43:22.139Z,97.17
2023-01-13T05:46:07.987Z,97.46
2023-01-13T05:48:41.386Z,97.87
2023-01-13T05:51:10.684Z,98.06
2023-01-13T05:53:38.115Z,98.76
2023-01-13T05:56:06.190Z,99.21
2023-01-13T05:58:34.404Z,99.87
2023-01-13T06:01:03.784Z,100.00
2023-01-13T06:03:31.839Z,100.00
2023-01-13T06:06:01.760Z,100.00
2023-01-13T06:08:29.755Z,100.00
2023-01-13T06:10:56.699Z,100.00
2023-01-13T06:13:25.434Z,100.00
2023-01-13T06:15:56.816Z,100.00
2023-01-13T06:18:24.135Z,100.00
2023-01-13T06:20:51.116Z,100.00
2023-01-13T06:23:18.358Z,100.00
2023-01-13T06:26:25.112Z,100.00
2023-01-13T06:28:52.413Z,100.00
2023-01-13T06:31:20.079Z,100.00
2023-01-13T06:33:50.875Z,100.00
2023-01-13T06:36:35.419Z,100.00
2023-01-13T06:39:04.158Z,100.00
2023-01-13T06:41:51.520Z,100.00
2023-01-13T06:44:20.474Z,100.00
2023-01-13T06:46:47.810Z,100.00
2023-01-13T06:49:15.056Z,100.00
2023-01-13T06:51:42.804Z,100.00
2023-01-13T06:54:09.950Z,100.00
2023-01-13T06:56:36.845Z,100.00
2023-01-13T06:59:04.089Z,100.00
2023-01-13T07:01:31.140Z,100.00
2023-01-13T07:03:58.403Z,100.00
2023-01-13T07:06:25.335Z,100.00
2023-01-13T07:08:52.532Z,100.00
2023-01-13T07:11:19.367Z,100.00
2023-01-13T07:14:05.351Z,100.00
2023-01-13T07:16:32.417Z,100.00
2023-01-13T07:18:59.748Z,100.00
2023-01-13T07:21:26.747Z,100.00
2023-01-13T07:23:53.959Z,100.00
2023-01-13T07:26:21.046Z,100.00
2023-01-13T07:28:48.468Z,100.00
2023-01-13T07:31:21.319Z,100.00
2023-01-13T07:33:48.900Z,100.00
2023-01-13T07:36:16.061Z,100.00
2023-01-13T07:38:44.748Z,100.00
2023-01-13T07:41:32.208Z,100.00
2023-01-13T07:44:00.437Z,100.00
2023-01-13T07:46:27.536Z,100.00
2023-01-13T07:48:54.677Z,100.00
2023-01-13T07:51:21.567Z,100.00
2023-01-13T07:53:49.344Z,100.00
2023-01-13T07:56:16.306Z,100.00
2023-01-13T07:58:44.942Z,100.00
2023-01-13T08:01:14.063Z,100.00
2023-01-13T08:03:41.523Z,100.00
2023-01-13T08:06:09.761Z,100.00
2023-01-13T08:08:38.012Z,100.00
2023-01-13T08:11:07.212Z,100.00
2023-01-13T08:13:34.674Z,100.00
2023-01-13T08:16:07.011Z,100.00
2023-01-13T08:18:35.748Z,100.00
2023-01-13T08:21:05.540Z,100.00
2023-01-13T08:23:32.795Z,100.00
2023-01-13T08:26:02.268Z,100.00
2023-01-13T08:28:30.220Z,100.00
2023-01-13T08:31:02.018Z,100.00
2023-01-13T08:33:29.896Z,100.00
2023-01-13T08:35:57.095Z,100.00
2023-01-13T08:38:25.788Z,100.00
2023-01-13T08:40:53.053Z,100.00
2023-01-13T08:43:20.501Z,100.00
2023-01-13T08:45:56.788Z,100.00
2023-01-13T08:48:24.415Z,100.00
2023-01-13T08:50:51.431Z,100.00
2023-01-13T08:53:19.053Z,100.00
2023-01-13T08:55:46.532Z,100.00
2023-01-13T08:58:15.998Z,100.00
2023-01-13T09:00:44.082Z,100.00
2023-01-13T09:03:11.741Z,100.00
2023-01-13T09:05:38.690Z,100.00
2023-01-13T09:08:06.039Z,100.00
2023-01-13T09:10:33.732Z,100.00
2023-01-13T09:13:13.424Z,99.99
2023-01-13T09:15:49.716Z,99.80
2023-01-13T09:18:17.352Z,99.81
2023-01-13T09:20:44.816Z,99.31
2023-01-13T09:23:12.013Z,99.09
2023-01-13T09:25:39.783Z,99.54
2023-01-13T09:28:08.447Z,98.33
2023-01-13T09:30:37.319Z,98.38
2023-01-13T09:33:23.244Z,98.44
2023-01-13T09:35:50.208Z,97.46
2023-01-13T09:38:17.499Z,97.75
2023-01-13T09:40:48.964Z,97.69
2023-01-13T09:43:53.984Z,97.35
2023-01-13T09:46:44.136Z,96.53
2023-01-13T09:49:20.958Z,96.85
2023-01-13T09:52:09.238Z,95.49
2023-01-13T09:54:49.771Z,95.64
2023-01-13T09:57:20.508Z,95.64
2023-01-13T09:59:48.753Z,95.91
2023-01-13T10:02:51.252Z,94.78
2023-01-13T10:05:43.524Z,93.90
2023-01-13T10:08:15.597Z,93.75
2023-01-13T10:10:51.017Z,94.12
2023-01-13T10:13:26.976Z,94.16
2023-01-13T10:16:19.115Z,93.51
2023-01-13T10:18:58.376Z,92.37
2023-01-13T10:22:10.705Z,91.83
2023-01-13T10:24:53.965Z,91.92
2023-01-13T10:27:36.846Z,91.74
2023-01-13T10:30:33.999Z,91.72
2023-01-13T10:33:09.543Z,91.30
2023-01-13T10:35:51.789Z,90.80
2023-01-13T10:38:25.303Z,89.09
2023-01-13T10:40:54.891Z,89.21
2023-01-13T10:43:23.122Z,89.28
2023-01-13T10:46:06.309Z,89.16
2023-01-13T10:48:39.483Z,88.86
2023-01-13T10:51:16.569Z,88.58
2023-01-13T10:54:02.763Z,87.87
2023-01-13T10:56:33.049Z,88.20
2023-01-13T10:59:23.033Z,87.19
2023-01-13T11:02:00.876Z,87.51
2023-01-13T11:04:44.040Z,87.05
2023-01-13T11:07:26.770Z,86.89
2023-01-13T11:10:28.659Z,86.93
2023-01-13T11:13:01.389Z,86.18
2023-01-13T11:15:48.907Z,86.70
2023-01-13T11:18:26.900Z,86.88
2023-01-13T11:20:58.590Z,86.88
2023-01-13T11:23:40.690Z,86.74
2023-01-13T11:26:41.015Z,86.65
2023-01-13T11:29:38.357Z,86.55
2023-01-13T11:32:28.119Z,86.86
2023-01-13T11:35:02.068Z,86.58
2023-01-13T11:37:33.353Z,86.75
2023-01-13T11:40:25.919Z,86.15
2023-01-13T11:43:02.041Z,85.90
2023-01-13T11:45:43.932Z,85.08
2023-01-13T11:48:17.800Z,84.90
2023-01-13T11:50:53.963Z,84.32
2023-01-13T11:53:28.338Z,84.31
2023-01-13T11:56:27.718Z,84.79
2023-01-13T11:59:10.956Z,84.68
2023-01-13T12:01:53.652Z,84.16
2023-01-13T12:04:29.647Z,84.55
2023-01-13T12:07:23.175Z,84.82
2023-01-13T12:10:16.876Z,84.14
2023-01-13T12:12:43.981Z,84.59
2023-01-13T12:15:35.949Z,83.94
2023-01-13T12:18:21.422Z,84.50
2023-01-13T12:21:07.408Z,84.07
2023-01-13T12:23:47.026Z,84.79
2023-01-13T12:26:17.144Z,84.94
2023-01-13T12:28:53.735Z,84.66
2023-01-13T12:31:22.367Z,85.17
2023-01-13T12:34:40.509Z,85.35
2023-01-13T12:37:23.907Z,85.11
2023-01-13T12:40:12.774Z,85.31
2023-01-13T12:43:11.233Z,85.56
2023-01-13T12:45:38.676Z,85.80
2023-01-13T12:48:06.348Z,85.96
2023-01-13T12:50:37.655Z,85.72
2023-01-13T12:53:32.456Z,85.43
2023-01-13T12:56:21.561Z,85.13
2023-01-13T12:58:48.905Z,85.02
2023-01-13T13:01:16.367Z,85.04
2023-01-13T13:04:09.487Z,85.20
2023-01-13T13:06:39.565Z,85.00
2023-01-13T13:09:21.715Z,84.91
2023-01-13T13:11:58.616Z,84.98
2023-01-13T13:14:37.895Z,85.10
2023-01-13T13:17:29.368Z,85.04
2023-01-13T13:19:57.855Z,85.02
2023-01-13T13:22:27.813Z,84.73
2023-01-13T13:24:54.964Z,84.26
2023-01-13T13:27:21.762Z,84.18
2023-01-13T13:30:04.765Z,84.70
2023-01-13T13:32:50.949Z,84.95
2023-01-13T13:35:43.334Z,84.71
2023-01-13T13:38:34.800Z,83.61
2023-01-13T13:41:32.232Z,84.03
2023-01-13T13:44:21.808Z,84.29
2023-01-13T13:46:49.852Z,84.59
2023-01-13T13:49:22.460Z,84.56
2023-01-13T13:52:07.178Z,84.73
2023-01-13T13:54:35.399Z,84.73
2023-01-13T13:57:02.708Z,84.97
2023-01-13T13:59:30.922Z,85.02
2023-01-13T14:02:02.117Z,85.12
2023-01-13T14:04:37.224Z,85.23
2023-01-13T14:07:22.072Z,85.23
2023-01-13T14:09:54.323Z,85.29
2023-01-13T14:12:24.037Z,85.45
2023-01-13T14:14:51.835Z,85.64
2023-01-13T14:17:25.832Z,85.56
2023-01-13T14:20:01.552Z,85.92
2023-01-13T14:22:29.072Z,85.53
2023-01-13T14:24:57.790Z,85.95
2023-01-13T14:27:28.419Z,86.17
2023-01-13T14:29:58.312Z,86.11
2023-01-13T14:32:33.624Z,86.20
2023-01-13T14:35:00.686Z,85.97
2023-01-13T14:37:39.755Z,86.10
2023-01-13T14:40:07.311Z,86.02
2023-01-13T14:42:35.613Z,86.20
2023-01-13T14:45:03.381Z,85.84
2023-01-13T14:47:34.102Z,85.95
2023-01-13T14:50:16.389Z,85.64
2023-01-13T14:52:49.264Z,85.68
2023-01-13T14:55:41.620Z,85.46
2023-01-13T14:58:28.657Z,85.72
2023-01-13T15:01:36.329Z,85.73
2023-01-13T15:04:27.049Z,86.03
2023-01-13T15:06:57.063Z,86.23
2023-01-13T15:09:28.240Z,86.25
2023-01-13T15:11:58.792Z,86.27
2023-01-13T15:14:32.580Z,85.98
2023-01-13T15:16:59.731Z,86.11
2023-01-13T15:19:26.922Z,86.22
2023-01-13T15:21:53.845Z,86.05
2023-01-13T15:24:21.174Z,86.17
2023-01-13T15:26:48.305Z,86.15
2023-01-13T15:29:15.841Z,85.95
2023-01-13T15:31:42.797Z,85.97
2023-01-13T15:34:10.076Z,86.16
2023-01-13T15:36:37.933Z,86.19
2023-01-13T15:39:06.931Z,85.85
2023-01-13T15:41:52.535Z,85.97
2023-01-13T15:44:38.470Z,86.21
2023-01-13T15:47:08.802Z,85.93
2023-01-13T15:49:44.030Z,85.79
2023-01-13T15:52:23.158Z,86.15
2023-01-13T15:54:51.708Z,85.98
2023-01-13T15:57:41.496Z,86.17
2023-01-13T16:00:16.144Z,86.11
2023-01-13T16:02:44.505Z,86.04
2023-01-13T16:05:12.496Z,86.01
2023-01-13T16:07:40.097Z,85.97
2023-01-13T16:10:17.333Z,85.73
2023-01-13T16:12:44.500Z,85.58
2023-01-13T16:15:17.219Z,85.52
2023-01-13T16:17:46.381Z,85.43
2023-01-13T16:20:18.107Z,85.72
2023-01-13T16:22:45.504Z,85.33
2023-01-13T16:25:21.781Z,85.37
2023-01-13T16:27:49.601Z,85.13
2023-01-13T16:30:25.247Z,85.50
2023-01-13T16:32:55.018Z,85.75
2023-01-13T16:35:23.721Z,85.81
2023-01-13T16:37:52.175Z,85.84
2023-01-13T16:40:26.613Z,86.15
2023-01-13T16:42:53.525Z,86.01
2023-01-13T16:45:20.656Z,85.84
2023-01-13T16:47:47.885Z,85.87
2023-01-13T16:50:41.059Z,85.72
2023-01-13T16:53:12.171Z,85.98
2023-01-13T16:55:41.224Z,86.03
2023-01-13T16:58:17.863Z,85.95
2023-01-13T17:00:47.014Z,86.06
2023-01-13T17:03:15.355Z,86.24
2023-01-13T17:05:44.442Z,86.57
2023-01-13T17:08:17.855Z,86.67
2023-01-13T17:10:46.358Z,86.71
2023-01-13T17:13:16.937Z,86.58
2023-01-13T17:15:45.880Z,86.74
2023-01-13T17:18:13.625Z,86.99
2023-01-13T17:20:41.160Z,86.88
2023-01-13T17:23:08.199Z,86.96
2023-01-13T17:25:35.527Z,86.66
2023-01-13T17:28:02.709Z,87.09
2023-01-13T17:30:29.934Z,87.13
2023-01-13T17:32:56.957Z,87.57
2023-01-13T17:35:25.234Z,87.63
2023-01-13T17:37:53.393Z,87.64
2023-01-13T17:40:20.875Z,87.77
2023-01-13T17:42:47.859Z,87.68
2023-01-13T17:45:16.370Z,88.07
2023-01-13T17:47:43.717Z,88.14
2023-01-13T17:50:11.189Z,88.47
2023-01-13T17:52:38.163Z,89.16
2023-01-13T17:55:05.743Z,89.76
2023-01-13T17:57:32.671Z,90.34
2023-01-13T17:59:59.884Z,90.78
2023-01-13T18:02:26.941Z,91.21
2023-01-13T18:04:54.193Z,92.10
2023-01-13T18:07:21.095Z,92.50
2023-01-13T18:09:48.481Z,92.77
2023-01-13T18:12:15.436Z,92.55
2023-01-13T18:14:42.637Z,93.16
2023-01-13T18:17:09.581Z,93.41
2023-01-13T18:19:55.220Z,93.79
2023-01-13T18:22:41.090Z,93.95
2023-01-13T18:25:31.017Z,94.62
2023-01-13T18:28:01.204Z,95.07
2023-01-13T18:30:28.497Z,95.19
2023-01-13T18:32:56.031Z,95.37
2023-01-13T18:35:23.464Z,95.49
2023-01-13T18:37:52.097Z,95.81
2023-01-13T18:40:19.328Z,95.67
2023-01-13T18:42:52.151Z,95.99
2023-01-13T18:45:23.229Z,95.96
2023-01-13T18:47:50.895Z,96.11
2023-01-13T18:50:18.860Z,95.99
2023-01-13T18:52:46.379Z,96.01
2023-01-13T18:55:13.548Z,96.05
2023-01-13T18:57:40.698Z,96.34
2023-01-13T19:00:09.977Z,95.90
2023-01-13T19:02:37.473Z,95.83
2023-01-13T19:05:05.359Z,95.46
2023-01-13T19:07:34.901Z,94.76
2023-01-13T19:10:04.439Z,94.52
2023-01-13T19:12:33.696Z,94.00
2023-01-13T19:15:02.140Z,94.17
2023-01-13T19:17:33.855Z,93.99
2023-01-13T19:20:01.575Z,93.87
2023-01-13T19:22:35.671Z,93.65
2023-01-13T19:25:04.423Z,93.48
2023-01-13T19:27:31.719Z,93.19
2023-01-13T19:30:00.681Z,92.09
2023-01-13T19:32:28.766Z,92.28
2023-01-13T19:34:59.348Z,92.50
2023-01-13T19:37:34.273Z,92.56
2023-01-13T19:40:01.649Z,92.33
2023-01-13T19:42:47.317Z,92.45
2023-01-13T19:45:29.396Z,92.23
2023-01-13T19:47:57.797Z,92.08
2023-01-13T19:50:24.995Z,91.66
2023-01-13T19:52:52.000Z,91.21
2023-01-13T19:55:19.858Z,91.14
2023-01-13T19:57:47.261Z,91.05
2023-01-13T20:00:20.306Z,91.24
2023-01-13T20:02:49.185Z,91.19
2023-01-13T20:05:21.239Z,91.27
2023-01-13T20:07:50.012Z,90.80
2023-01-13T20:10:18.923Z,90.91
2023-01-13T20:12:45.880Z,91.24
2023-01-13T20:15:13.794Z,91.15
2023-01-13T20:17:41.655Z,91.29
2023-01-13T20:20:10.701Z,91.28
2023-01-13T20:22:39.319Z,91.49
2023-01-13T20:25:07.757Z,91.23
2023-01-13T20:27:34.982Z,90.80
2023-01-13T20:30:02.324Z,90.92
2023-01-13T20:32:29.195Z,90.94
2023-01-13T20:34:56.324Z,90.80
2023-01-13T20:37:23.272Z,90.64
2023-01-13T20:39:50.639Z,90.83
2023-01-13T20:42:39.806Z,90.75
2023-01-13T20:45:07.466Z,90.79
2023-01-13T20:47:34.622Z,91.06
2023-01-13T20:50:01.821Z,90.64
2023-01-13T20:52:28.813Z,90.81
2023-01-13T20:54:55.946Z,90.86
2023-01-13T20:57:22.826Z,90.68
2023-01-13T20:59:50.006Z,90.69
2023-01-13T21:02:17.820Z,90.93
2023-01-13T21:04:45.298Z,90.94
2023-01-13T21:07:12.221Z,91.00
2023-01-13T21:09:39.878Z,90.90
2023-01-13T21:12:26.208Z,90.88
2023-01-13T21:15:12.215Z,91.13
2023-01-13T21:17:57.815Z,91.19
2023-01-13T21:20:25.094Z,91.16
2023-01-13T21:22:51.992Z,91.01
2023-01-13T21:25:19.761Z,90.98
2023-01-13T21:27:46.654Z,91.41
2023-01-13T21:30:15.477Z,91.19
2023-01-13T21:32:44.217Z,90.41
2023-01-13T21:35:13.352Z,90.42
2023-01-13T21:37:42.002Z,90.79
2023-01-13T21:40:12.254Z,90.83
2023-01-13T21:42:57.570Z,91.01
2023-01-13T21:45:43.310Z,91.10
2023-01-13T21:48:10.325Z,91.43
2023-01-13T21:50:38.585Z,91.34
2023-01-13T21:53:07.882Z,91.58
2023-01-13T21:55:36.825Z,91.52
2023-01-13T21:58:11.030Z,91.90
2023-01-13T22:00:39.586Z,91.73
2023-01-13T22:03:08.051Z,91.70
2023-01-13T22:05:35.665Z,91.75
2023-01-13T22:08:03.014Z,92.00
2023-01-13T22:10:31.021Z,92.08
2023-01-13T22:13:00.384Z,92.12
2023-01-13T22:15:29.164Z,92.08
2023-01-13T22:17:56.525Z,92.44
2023-01-13T22:20:23.691Z,92.43
2023-01-13T22:22:50.625Z,92.57
2023-01-13T22:25:20.228Z,92.71
2023-01-13T22:27:48.451Z,93.04
2023-01-13T22:30:18.920Z,93.41
2023-01-13T22:32:46.488Z,93.29
2023-01-13T22:35:15.636Z,93.30
2023-01-13T22:37:42.735Z,93.15
2023-01-13T22:40:12.114Z,93.60
2023-01-13T22:42:40.983Z,93.82
2023-01-13T22:45:11.847Z,93.66
2023-01-13T22:47:38.943Z,94.13
2023-01-13T22:50:07.412Z,93.94
2023-01-13T22:52:35.326Z,93.99
2023-01-13T22:55:02.754Z,94.00
2023-01-13T22:57:35.928Z,94.00
2023-01-13T23:00:06.389Z,94.28
2023-01-13T23:02:34.653Z,94.63
2023-01-13T23:05:01.977Z,94.68
2023-01-13T23:07:29.162Z,94.90
2023-01-13T23:09:56.333Z,95.00
2023-01-13T23:12:23.248Z,95.24
2023-01-13T23:14:50.450Z,95.12
2023-01-13T23:17:17.333Z,95.53
2023-01-13T23:19:44.508Z,95.64
2023-01-13T23:22:13.120Z,95.67
2023-01-13T23:24:40.350Z,95.96
2023-01-13T23:27:07.256Z,96.14
2023-01-13T23:29:34.439Z,96.32
2023-01-13T23:32:01.323Z,96.26
2023-01-13T23:34:28.659Z,96.08
2023-01-13T23:36:55.516Z,96.24
2023-01-13T23:39:24.359Z,96.11
2023-01-13T23:41:51.576Z,96.14
2023-01-13T23:44:18.740Z,96.17
2023-01-13T23:46:45.704Z,96.34
2023-01-13T23:49:12.882Z,96.35
2023-01-13T23:51:39.959Z,96.45
2023-01-13T23:54:07.216Z,96.29
2023-01-13T23:56:39.164Z,96.57
2023-01-13T23:59:06.709Z,96.31
